Time;durP1;ratioP1;P1;durP2;ratioP2;P2;SDS_P1;SDS_P2;PMS_P1;PMS_P2;Temp;Humidity;BMP_temperature;BMP_pressure;BME280_temperature;BME280_humidity;BME280_pressure;Samples;Min_cycle;Max_cycle;Signal;HPM_P1;HPM_P2
2022/11/06 00:01:47;;;;;;;10.43;3.72;;;;;;;10.19;100.00;101357.03;6097876;23;20018;-54
2022/11/06 00:04:15;;;;;;;7.20;3.00;;;;;;;10.21;100.00;101349.44;6096823;23;20014;-57
2022/11/06 00:06:48;;;;;;;7.55;3.38;;;;;;;10.19;100.00;101346.94;6098297;23;20391;-53
2022/11/06 00:09:20;;;;;;;7.68;3.10;;;;;;;10.18;100.00;101356.22;6097014;23;20073;-57
2022/11/06 00:11:49;;;;;;;5.90;3.00;;;;;;;10.19;100.00;101352.41;6096383;23;20519;-52
2022/11/06 00:14:17;;;;;;;10.43;3.60;;;;;;;10.18;100.00;101361.66;6096681;23;20050;-55
2022/11/06 00:16:45;;;;;;;9.85;3.28;;;;;;;10.17;100.00;101360.03;6098372;23;20021;-53
2022/11/06 00:19:14;;;;;;;9.95;3.60;;;;;;;10.17;100.00;101365.47;6095663;23;20503;-55
2022/11/06 00:21:42;;;;;;;9.63;3.35;;;;;;;10.18;100.00;101356.22;6096172;23;20033;-56
2022/11/06 00:24:12;;;;;;;9.68;3.30;;;;;;;10.20;100.00;101354.06;6096455;23;20018;-57
2022/11/06 00:26:40;;;;;;;8.90;3.08;;;;;;;10.20;100.00;101359.50;6096599;23;20511;-57
2022/11/06 00:29:12;;;;;;;8.00;3.47;;;;;;;10.17;100.00;101360.03;6097506;23;20026;-57
2022/11/06 00:31:40;;;;;;;9.43;3.25;;;;;;;10.16;100.00;101352.09;6098795;23;20030;-58
2022/11/06 00:34:08;;;;;;;8.55;3.15;;;;;;;10.11;100.00;101358.28;6096602;23;20018;-54
2022/11/06 00:36:35;;;;;;;11.75;3.40;;;;;;;10.14;100.00;101343.34;6096198;23;20066;-57
2022/11/06 00:39:03;;;;;;;7.47;3.25;;;;;;;10.11;100.00;101344.69;6097415;23;20037;-56
2022/11/06 00:41:31;;;;;;;8.02;3.35;;;;;;;10.08;100.00;101344.34;6096332;23;20026;-57
2022/11/06 00:44:00;;;;;;;7.63;3.25;;;;;;;10.09;100.00;101340.56;6097280;23;20018;-52
2022/11/06 00:46:28;;;;;;;10.02;3.45;;;;;;;10.10;100.00;101336.75;6097960;23;20101;-56
2022/11/06 00:48:56;;;;;;;8.18;2.97;;;;;;;10.07;100.00;101335.34;6097777;23;20293;-58
2022/11/06 00:51:29;;;;;;;12.05;3.45;;;;;;;10.06;100.00;101330.19;6096898;23;20019;-56
2022/11/06 00:54:03;;;;;;;11.80;3.67;;;;;;;10.06;100.00;101333.72;6072876;23;20074;-57
2022/11/06 00:56:31;;;;;;;8.60;3.13;;;;;;;10.02;100.00;101332.56;6096537;23;20444;-56
2022/11/06 00:59:00;;;;;;;9.77;3.13;;;;;;;10.02;100.00;101340.75;6096349;23;20018;-56
2022/11/06 01:01:33;;;;;;;12.82;3.50;;;;;;;10.03;100.00;101336.97;6095911;23;20345;-55
2022/11/06 01:04:13;;;;;;;10.00;2.92;;;;;;;10.03;100.00;101332.34;6097500;23;20079;-56
2022/11/06 01:06:43;;;;;;;9.02;3.55;;;;;;;10.02;100.00;101327.13;6097433;23;20022;-51
2022/11/06 01:09:13;;;;;;;8.18;3.20;;;;;;;10.02;100.00;101340.75;6096448;23;20034;-53
2022/11/06 01:11:50;;;;;;;10.30;3.30;;;;;;;10.00;100.00;101332.00;6096035;23;20399;-57
2022/11/06 01:14:41;;;;;;;10.98;3.97;;;;;;;9.99;100.00;101339.34;6096942;23;20455;-57
2022/11/06 01:17:09;;;;;;;11.63;3.78;;;;;;;10.00;100.00;101332.00;6095888;23;20030;-57
2022/11/06 01:19:36;;;;;;;10.15;3.35;;;;;;;9.98;100.00;101339.59;6097396;23;20026;-55
2022/11/06 01:22:04;;;;;;;8.38;3.28;;;;;;;9.97;100.00;101336.06;6097065;23;20019;-58
2022/11/06 01:24:32;;;;;;;8.48;2.90;;;;;;;9.97;100.00;101327.06;6097448;23;20078;-56
2022/11/06 01:26:59;;;;;;;11.48;3.38;;;;;;;9.95;100.00;101316.41;6095701;23;20343;-51
2022/11/06 01:29:47;;;;;;;8.23;3.08;;;;;;;9.95;100.00;101305.53;6097378;23;20041;-54
2022/11/06 01:32:14;;;;;;;7.55;2.58;;;;;;;9.96;100.00;101311.81;6097210;23;20089;-52
2022/11/06 01:34:42;;;;;;;9.27;3.10;;;;;;;9.94;100.00;101312.06;6097107;23;20377;-51
2022/11/06 01:37:09;;;;;;;6.65;3.00;;;;;;;9.94;100.00;101309.34;6071718;23;20019;-49
2022/11/06 01:39:41;;;;;;;9.10;3.28;;;;;;;9.95;100.00;101312.88;6097074;23;20458;-51
2022/11/06 01:42:18;;;;;;;7.63;3.00;;;;;;;9.96;100.00;101304.47;6096731;23;20055;-52
2022/11/06 01:45:05;;;;;;;10.18;2.97;;;;;;;9.96;100.00;101309.09;6096611;23;20053;-56
2022/11/06 01:47:32;;;;;;;7.93;2.90;;;;;;;9.94;100.00;101305.81;6096211;23;20064;-57
2022/11/06 01:50:04;;;;;;;10.00;3.13;;;;;;;9.93;100.00;101294.09;6097014;23;20022;-56
2022/11/06 01:52:32;;;;;;;11.13;3.13;;;;;;;9.94;100.00;101300.34;6095216;23;20026;-54
2022/11/06 01:55:23;;;;;;;12.30;3.47;;;;;;;9.92;100.00;101291.63;6096780;23;20019;-56
2022/11/06 01:57:51;;;;;;;8.07;2.75;;;;;;;9.92;100.00;101286.97;6095238;23;20077;-51
2022/11/06 02:00:19;;;;;;;7.88;2.63;;;;;;;9.94;100.00;101297.63;6095868;23;20089;-51
2022/11/06 02:02:47;;;;;;;6.65;2.85;;;;;;;10.00;100.00;101293.88;6097245;23;20026;-53
2022/11/06 02:05:15;;;;;;;8.52;2.70;;;;;;;9.99;100.00;101297.69;6094535;23;20018;-50
2022/11/06 02:07:43;;;;;;;5.40;2.40;;;;;;;10.02;100.00;101289.84;6097023;23;20074;-53
2022/11/06 02:10:11;;;;;;;7.10;3.10;;;;;;;10.07;100.00;101278.19;6096560;23;20015;-50
2022/11/06 02:13:12;;;;;;;8.93;3.03;;;;;;;10.05;100.00;101287.69;6096660;23;20026;-53
2022/11/06 02:15:51;;;;;;;7.05;2.45;;;;;;;10.03;100.00;101280.59;6095234;23;20014;-50
2022/11/06 02:18:33;;;;;;;11.88;3.50;;;;;;;10.05;100.00;101265.91;6095757;23;20057;-52
2022/11/06 02:21:39;;;;;;;8.98;2.80;;;;;;;10.00;100.00;101272.09;6096978;23;20101;-53
2022/11/06 02:24:26;;;;;;;8.73;2.75;;;;;;;10.08;100.00;101279.00;6097141;23;20054;-53
2022/11/06 02:27:11;;;;;;;7.32;2.88;;;;;;;10.09;100.00;101267.06;6096372;23;20046;-55
2022/11/06 02:29:45;;;;;;;6.38;2.20;;;;;;;10.08;100.00;101268.09;6096824;23;20443;-53
2022/11/06 02:32:20;;;;;;;10.43;3.03;;;;;;;10.06;100.00;101262.94;6097038;23;20022;-56
2022/11/06 02:34:50;;;;;;;8.70;3.33;;;;;;;10.08;100.00;101258.06;6095810;23;20033;-52
2022/11/06 02:37:23;;;;;;;6.88;2.47;;;;;;;10.05;100.00;101253.09;6072691;23;20083;-55
2022/11/06 02:39:52;;;;;;;6.63;2.70;;;;;;;10.07;100.00;101250.97;6097013;23;20018;-56
2022/11/06 02:42:20;;;;;;;6.80;2.60;;;;;;;10.05;100.00;101252.28;6095403;23;20045;-55
2022/11/06 02:44:50;;;;;;;5.93;2.35;;;;;;;10.03;100.00;101250.66;6096265;23;20030;-56
2022/11/06 02:47:19;;;;;;;10.95;3.17;;;;;;;10.05;100.00;101253.09;6095250;23;20019;-56
2022/11/06 02:49:53;;;;;;;8.82;3.15;;;;;;;10.08;100.00;101244.47;6095275;23;20375;-56
2022/11/06 02:52:36;;;;;;;9.60;2.55;;;;;;;10.09;100.00;101231.66;6095906;23;20023;-57
2022/11/06 02:55:14;;;;;;;8.05;2.67;;;;;;;10.09;100.00;101242.56;6094054;23;20070;-56
2022/11/06 02:57:46;;;;;;;8.50;2.80;;;;;;;10.07;100.00;101239.25;6093832;23;20026;-51
2022/11/06 03:00:15;;;;;;;9.93;3.03;;;;;;;10.05;100.00;101244.94;6093681;23;20046;-50
2022/11/06 03:02:52;;;;;;;9.05;2.47;;;;;;;10.07;100.00;101237.34;6093841;23;20324;-55
2022/11/06 03:05:35;;;;;;;9.45;2.90;;;;;;;10.09;100.00;101243.38;6095115;23;20022;-56
2022/11/06 03:08:16;;;;;;;8.80;2.47;;;;;;;10.11;100.00;101243.13;6094792;23;20018;-55
2022/11/06 03:11:18;;;;;;;7.38;2.53;;;;;;;10.10;100.00;101245.03;6094978;23;20022;-56
2022/11/06 03:13:53;;;;;;;9.73;2.85;;;;;;;10.14;100.00;101248.06;6094941;23;20018;-55
2022/11/06 03:16:27;;;;;;;8.30;2.97;;;;;;;10.17;100.00;101244.81;6071632;23;20026;-56
2022/11/06 03:19:11;;;;;;;9.10;2.63;;;;;;;10.15;100.00;101249.69;6094568;23;20026;-56
2022/11/06 03:22:01;;;;;;;9.38;2.63;;;;;;;10.16;100.00;101248.63;6072129;23;20312;-56
2022/11/06 03:24:50;;;;;;;7.65;2.53;;;;;;;10.18;100.00;101260.91;6095451;23;20046;-56
2022/11/06 03:27:26;;;;;;;7.50;2.72;;;;;;;10.17;100.00;101250.25;6096306;23;20019;-54
2022/11/06 03:30:07;;;;;;;8.52;2.70;;;;;;;10.16;100.00;101241.28;6095585;23;20026;-56
2022/11/06 03:32:50;;;;;;;9.18;2.90;;;;;;;10.13;100.00;101235.53;6095213;23;20026;-56
2022/11/06 03:35:41;;;;;;;9.30;2.42;;;;;;;10.15;100.00;101231.47;6095136;23;20030;-57
2022/11/06 03:38:39;;;;;;;7.15;2.60;;;;;;;10.17;100.00;101223.03;6095479;23;20018;-56
2022/11/06 03:41:13;;;;;;;6.35;2.25;;;;;;;10.20;100.00;101212.47;6096015;23;20022;-57
2022/11/06 03:43:45;;;;;;;10.75;3.03;;;;;;;10.16;100.00;101222.22;6096985;23;20089;-56
2022/11/06 03:46:18;;;;;;;8.52;2.45;;;;;;;10.16;100.00;101203.16;6071696;23;20352;-53
2022/11/06 03:48:53;;;;;;;6.30;2.40;;;;;;;10.17;100.00;101212.13;6093705;23;20105;-57
2022/11/06 03:51:28;;;;;;;7.40;2.57;;;;;;;10.20;100.00;101212.47;6049855;23;1078324;-56
2022/11/06 03:53:59;;;;;;;6.63;2.92;;;;;;;10.16;100.00;101205.88;6097606;23;20388;-59
2022/11/06 03:56:41;;;;;;;8.57;2.88;;;;;;;10.19;100.00;101205.34;6096734;23;20082;-57
2022/11/06 03:59:11;;;;;;;10.38;2.67;;;;;;;10.16;100.00;101197.69;6098219;23;20719;-55
2022/11/06 04:01:43;;;;;;;8.60;2.83;;;;;;;10.12;100.00;101188.38;6097216;23;20018;-56
2022/11/06 04:04:17;;;;;;;6.43;2.70;;;;;;;10.11;100.00;101186.75;6098100;23;20023;-55
2022/11/06 04:06:51;;;;;;;10.73;2.78;;;;;;;10.11;100.00;101185.94;6096653;23;20061;-56
2022/11/06 04:14:56;;;;;;;8.35;3.25;;;;;;;10.05;100.00;101187.78;6097121;23;20392;-57
2022/11/06 04:17:25;;;;;;;8.27;2.67;;;;;;;10.08;100.00;101176.38;6096544;23;20467;-56
2022/11/06 04:19:56;;;;;;;6.88;2.70;;;;;;;10.08;100.00;101183.72;6096027;23;20451;-57
2022/11/06 04:22:36;;;;;;;7.13;2.70;;;;;;;10.08;100.00;101175.53;6096625;23;20324;-54
2022/11/06 04:28:22;;;;;;;8.02;2.60;;;;;;;10.07;100.00;101163.03;6097222;23;20070;-58
2022/11/06 04:31:15;;;;;;;8.77;2.90;;;;;;;10.11;100.00;101154.09;6096272;23;20093;-57
2022/11/06 04:34:21;;;;;;;9.60;2.88;;;;;;;10.09;100.00;101155.44;6097429;23;20057;-55
2022/11/06 04:37:06;;;;;;;6.65;2.65;;;;;;;10.05;100.00;101149.66;6039293;23;20510;-55
2022/11/06 04:39:55;;;;;;;8.47;2.90;;;;;;;10.03;100.00;101149.13;6098188;23;20026;-54
2022/11/06 04:42:32;;;;;;;9.43;3.00;;;;;;;10.03;100.00;101149.13;6096114;23;20041;-59
2022/11/06 04:45:07;;;;;;;6.88;2.72;;;;;;;10.02;100.00;101144.72;6096301;23;20395;-56
2022/11/06 04:47:35;;;;;;;8.43;2.80;;;;;;;10.03;100.00;101152.66;6096872;23;20081;-56
2022/11/06 04:50:03;;;;;;;13.52;3.42;;;;;;;10.00;100.00;101146.88;6096272;23;20050;-55
2022/11/06 04:52:31;;;;;;;8.80;2.90;;;;;;;9.98;100.00;101149.03;6096401;23;20383;-52
2022/11/06 04:54:58;;;;;;;7.22;2.80;;;;;;;9.97;100.00;101145.50;6096129;23;20022;-51
2022/11/06 04:57:26;;;;;;;9.52;2.80;;;;;;;10.01;100.00;101140.38;6098098;23;20019;-55
2022/11/06 04:59:55;;;;;;;9.10;2.60;;;;;;;9.98;100.00;101136.28;6098339;23;20448;-51
2022/11/06 05:02:23;;;;;;;10.27;3.10;;;;;;;9.97;100.00;101131.06;6097469;23;20087;-56
2022/11/06 05:04:51;;;;;;;10.50;3.03;;;;;;;9.95;100.00;101128.59;6096214;23;20054;-57
2022/11/06 05:07:18;;;;;;;10.23;3.25;;;;;;;9.94;100.00;101137.03;6097609;23;20022;-54
2022/11/06 05:09:46;;;;;;;9.70;2.97;;;;;;;9.93;100.00;101135.38;6097532;23;20022;-52
2022/11/06 05:12:14;;;;;;;6.60;2.67;;;;;;;9.92;100.00;101131.03;6094604;23;20023;-50
2022/11/06 05:14:41;;;;;;;9.55;3.20;;;;;;;9.88;100.00;101129.88;6096660;23;20329;-53
2022/11/06 05:17:09;;;;;;;9.23;3.00;;;;;;;9.84;100.00;101131.47;6097966;23;20062;-52
2022/11/06 05:19:36;;;;;;;10.30;3.45;;;;;;;9.82;100.00;101134.47;6097767;23;20381;-51
2022/11/06 05:24:50;;;;;;;9.80;2.95;;;;;;;9.84;100.00;101126.00;6097384;23;20025;-49
2022/11/06 05:27:17;;;;;;;11.15;3.20;;;;;;;9.81;100.00;101116.47;6097192;23;20456;-52
2022/11/06 05:29:45;;;;;;;9.20;2.88;;;;;;;9.78;100.00;101111.53;6096969;23;20325;-53
2022/11/06 05:32:13;;;;;;;10.95;2.90;;;;;;;9.80;100.00;101114.84;6097891;23;20026;-51
2022/11/06 05:34:41;;;;;;;7.50;2.85;;;;;;;9.79;100.00;101119.47;6102941;23;20399;-55
2022/11/06 05:37:08;;;;;;;8.48;2.80;;;;;;;9.80;100.00;101126.53;6103526;23;20023;-55
2022/11/06 05:39:36;;;;;;;6.30;2.30;;;;;;;9.80;100.00;101131.16;6102369;23;20015;-54
2022/11/06 05:42:08;;;;;;;8.82;2.97;;;;;;;9.81;100.00;101117.31;6103982;23;20399;-52
2022/11/06 05:44:36;;;;;;;9.13;2.60;;;;;;;9.80;100.00;101123.81;6103789;23;20018;-54
2022/11/06 05:47:04;;;;;;;8.60;2.63;;;;;;;9.79;100.00;101114.03;6101538;23;20026;-54
2022/11/06 05:49:31;;;;;;;7.55;2.58;;;;;;;9.78;100.00;101104.19;6097097;23;20014;-56
2022/11/06 05:51:59;;;;;;;13.38;3.13;;;;;;;9.76;100.00;101098.19;6097733;23;20022;-57
2022/11/06 05:54:26;;;;;;;9.00;2.65;;;;;;;9.74;100.00;101100.38;6095305;23;20081;-55
2022/11/06 05:56:54;;;;;;;10.05;3.38;;;;;;;9.76;100.00;101095.47;6096788;23;20062;-55
2022/11/06 05:59:21;;;;;;;7.75;2.63;;;;;;;9.80;100.00;101096.59;6098087;23;20085;-55
2022/11/06 06:01:49;;;;;;;8.18;2.58;;;;;;;9.82;100.00;101091.72;6095949;23;20081;-55
2022/11/06 06:04:17;;;;;;;10.15;2.90;;;;;;;9.80;100.00;101102.03;6096500;23;20022;-55
2022/11/06 06:06:44;;;;;;;7.30;2.97;;;;;;;9.85;100.00;101086.84;6096712;23;20066;-56
2022/11/06 06:09:12;;;;;;;9.45;3.05;;;;;;;9.80;100.00;101083.00;6097608;23;20454;-52
2022/11/06 06:11:39;;;;;;;7.90;2.88;;;;;;;9.79;100.00;101084.09;6098191;23;20029;-55
2022/11/06 06:14:07;;;;;;;8.77;2.90;;;;;;;9.77;100.00;101078.06;6098282;23;20061;-55
2022/11/06 06:16:35;;;;;;;10.27;3.08;;;;;;;9.75;100.00;101076.69;6095472;23;20073;-54
2022/11/06 06:19:02;;;;;;;7.50;2.53;;;;;;;9.79;100.00;101083.28;6096262;23;20026;-55
2022/11/06 06:21:30;;;;;;;8.60;3.00;;;;;;;9.80;100.00;101087.63;6098819;23;20026;-52
2022/11/06 06:23:57;;;;;;;9.05;2.80;;;;;;;9.78;100.00;101078.88;6093087;23;20078;-56
2022/11/06 06:26:25;;;;;;;7.57;2.90;;;;;;;9.77;100.00;101071.81;6093214;23;20605;-57
2022/11/06 06:28:53;;;;;;;10.90;3.22;;;;;;;9.73;100.00;101071.50;6093252;23;20447;-56
2022/11/06 06:31:21;;;;;;;8.40;2.90;;;;;;;9.75;100.00;101066.63;6092412;23;20097;-58
2022/11/06 06:33:49;;;;;;;8.77;2.95;;;;;;;9.76;100.00;101076.41;6092940;23;20022;-58
2022/11/06 06:36:16;;;;;;;8.13;2.65;;;;;;;9.87;100.00;101076.53;6091437;23;20600;-56
2022/11/06 06:38:44;;;;;;;7.72;2.90;;;;;;;9.85;100.00;101070.53;6089288;23;20014;-58
2022/11/06 06:41:11;;;;;;;6.88;2.63;;;;;;;9.83;100.00;101070.78;6093112;23;20046;-54
2022/11/06 06:43:39;;;;;;;8.02;3.00;;;;;;;9.86;100.00;101072.16;6093095;23;20088;-57
2022/11/06 06:46:07;;;;;;;12.13;3.13;;;;;;;9.86;100.00;101080.31;6093565;23;20074;-53
2022/11/06 06:48:35;;;;;;;5.30;2.13;;;;;;;9.91;100.00;101077.66;6093902;23;20022;-52
2022/11/06 06:51:03;;;;;;;8.85;2.70;;;;;;;10.00;100.00;101079.66;6092760;23;20014;-53
2022/11/06 06:53:32;;;;;;;9.80;2.67;;;;;;;9.99;100.00;101090.81;6093135;23;20026;-54
2022/11/06 06:56:00;;;;;;;11.95;2.88;;;;;;;9.97;100.00;101087.53;6090825;23;20746;-52
2022/11/06 06:58:31;;;;;;;5.75;2.45;;;;;;;9.95;100.00;101079.59;6094267;23;20018;-54
2022/11/06 07:01:03;;;;;;;9.75;2.72;;;;;;;9.98;100.00;101073.66;6099903;23;20022;-53
2022/11/06 07:03:31;;;;;;;8.85;2.53;;;;;;;9.99;100.00;101069.84;6095474;23;20078;-58
2022/11/06 07:05:59;;;;;;;7.97;3.00;;;;;;;9.97;100.00;101065.75;6095588;23;20029;-54
2022/11/06 07:08:27;;;;;;;9.18;2.67;;;;;;;9.99;100.00;101058.16;6097559;23;20022;-54
2022/11/06 07:10:59;;;;;;;6.70;2.65;;;;;;;10.16;100.00;101058.03;6097324;23;20037;-56
2022/11/06 07:13:27;;;;;;;5.60;2.60;;;;;;;10.24;100.00;101071.97;6096004;23;20022;-55
2022/11/06 07:16:04;;;;;;;7.22;2.30;;;;;;;10.45;100.00;101064.00;6075701;23;20119;-57
2022/11/06 07:18:32;;;;;;;7.43;2.63;;;;;;;10.41;100.00;101063.72;6097198;23;20455;-56
2022/11/06 07:21:00;;;;;;;8.50;2.65;;;;;;;10.30;100.00;101061.16;6096842;23;20097;-54
2022/11/06 07:23:27;;;;;;;6.28;2.40;;;;;;;10.35;100.00;101056.56;6098175;23;20070;-57
2022/11/06 07:25:55;;;;;;;7.15;2.42;;;;;;;10.36;100.00;101057.38;6098391;23;20070;-57
2022/11/06 07:28:22;;;;;;;6.00;1.95;;;;;;;10.34;100.00;101057.66;6097319;23;20118;-56
2022/11/06 07:30:50;;;;;;;5.88;2.17;;;;;;;10.36;100.00;101057.38;6095615;23;20018;-55
2022/11/06 07:33:17;;;;;;;9.15;2.88;;;;;;;10.36;100.00;101055.47;6098471;23;20026;-57
2022/11/06 07:35:45;;;;;;;6.35;2.33;;;;;;;10.39;100.00;101054.13;6095799;23;20046;-55
2022/11/06 07:38:13;;;;;;;9.20;2.80;;;;;;;10.36;100.00;101060.09;6095190;23;20030;-56
2022/11/06 07:40:41;;;;;;;7.53;2.67;;;;;;;10.35;100.00;101055.75;6098237;23;20517;-57
2022/11/06 07:43:10;;;;;;;8.88;2.83;;;;;;;10.30;100.00;101058.44;6096783;23;20023;-53
2022/11/06 07:45:38;;;;;;;7.05;2.67;;;;;;;10.27;100.00;101064.34;6096621;23;20436;-56
2022/11/06 07:48:06;;;;;;;11.13;3.20;;;;;;;10.20;100.00;101065.41;6095901;23;20018;-54
2022/11/06 07:50:33;;;;;;;10.40;3.30;;;;;;;10.21;100.00;101064.31;6097212;23;20523;-55
2022/11/06 07:53:02;;;;;;;10.00;2.90;;;;;;;10.31;100.00;101060.88;6097713;23;20022;-58
2022/11/06 07:55:29;;;;;;;11.80;3.70;;;;;;;10.26;100.00;101049.94;6097099;23;20019;-56
2022/11/06 07:57:58;;;;;;;11.27;3.30;;;;;;;10.37;100.00;101048.97;6097772;23;20070;-58
2022/11/06 08:00:26;;;;;;;16.85;4.60;;;;;;;10.35;100.00;101045.69;6097373;23;20089;-54
2022/11/06 08:02:53;;;;;;;10.23;2.70;;;;;;;10.31;100.00;101043.72;6098284;23;20065;-58
2022/11/06 08:05:21;;;;;;;9.23;3.10;;;;;;;10.18;100.00;101032.16;6096676;23;20014;-58
2022/11/06 08:07:49;;;;;;;7.15;3.00;;;;;;;10.12;100.00;101041.38;6097080;23;20073;-58
2022/11/06 08:10:16;;;;;;;11.43;3.22;;;;;;;10.11;100.00;101050.63;6072893;23;20018;-57
2022/11/06 08:12:44;;;;;;;6.43;2.55;;;;;;;10.10;100.00;101048.16;6097505;23;20077;-58
2022/11/06 08:15:11;;;;;;;8.13;2.70;;;;;;;10.08;100.00;101051.16;6097728;23;20022;-54
2022/11/06 08:17:39;;;;;;;11.98;3.45;;;;;;;10.09;100.00;101058.22;6096905;23;20019;-57
2022/11/06 08:20:07;;;;;;;7.88;2.60;;;;;;;10.12;100.00;101040.56;6097595;23;20030;-55
2022/11/06 08:22:35;;;;;;;9.20;2.53;;;;;;;10.12;100.00;101038.66;6097635;23;20018;-54
2022/11/06 08:25:03;;;;;;;8.18;2.80;;;;;;;10.19;100.00;101047.41;6097455;23;20462;-58
2022/11/06 08:27:31;;;;;;;10.07;3.25;;;;;;;10.24;100.00;101038.47;6097389;23;20498;-56
2022/11/06 08:29:59;;;;;;;9.48;2.67;;;;;;;10.28;100.00;101033.34;6097574;23;20576;-56
2022/11/06 08:32:27;;;;;;;11.35;3.70;;;;;;;10.48;100.00;101027.25;6097610;23;20033;-57
2022/11/06 08:34:55;;;;;;;10.65;3.30;;;;;;;10.48;100.00;101016.34;6097411;23;20042;-57
2022/11/06 08:37:22;;;;;;;16.88;4.40;;;;;;;10.73;100.00;101013.78;6097155;23;20388;-57
2022/11/06 08:39:50;;;;;;;7.07;2.85;;;;;;;10.62;100.00;101018.34;6097296;23;20045;-54
2022/11/06 08:42:18;;;;;;;10.57;4.30;;;;;;;10.64;100.00;101010.72;6097485;23;20038;-58
2022/11/06 08:44:45;;;;;;;16.33;5.10;;;;;;;10.65;100.00;101009.66;6096238;23;20026;-57
2022/11/06 08:47:13;;;;;;;11.65;3.55;;;;;;;10.64;100.00;101005.28;6096022;23;20065;-58
2022/11/06 08:49:40;;;;;;;10.43;3.38;;;;;;;10.79;100.00;101001.00;6097396;23;20022;-57
2022/11/06 08:52:08;;;;;;;11.27;3.75;;;;;;;10.68;100.00;100993.84;6097762;23;20486;-56
2022/11/06 08:54:35;;;;;;;9.27;3.35;;;;;;;10.63;100.00;100990.03;6097435;23;20022;-58
2022/11/06 08:57:03;;;;;;;8.52;2.92;;;;;;;10.70;100.00;100994.41;6097346;23;20084;-56
2022/11/06 08:59:31;;;;;;;13.38;4.13;;;;;;;10.90;100.00;100997.25;6097493;23;20023;-58
2022/11/06 09:02:00;;;;;;;10.82;3.20;;;;;;;10.86;100.00;100996.13;6096583;23;20446;-52
2022/11/06 09:04:27;;;;;;;12.90;3.67;;;;;;;10.92;100.00;101000.53;6097181;23;20372;-55
2022/11/06 09:06:57;;;;;;;12.43;4.32;;;;;;;10.93;100.00;100990.44;6095897;23;20384;-56
2022/11/06 09:09:30;;;;;;;9.43;3.10;;;;;;;10.92;100.00;100984.16;6097007;23;20018;-58
2022/11/06 09:11:59;;;;;;;9.45;3.58;;;;;;;10.90;100.00;100980.06;6096155;23;20038;-58
2022/11/06 09:14:27;;;;;;;10.73;2.83;;;;;;;10.77;100.00;100975.91;6097239;23;20069;-57
2022/11/06 09:16:54;;;;;;;10.63;3.13;;;;;;;10.80;100.00;100973.47;6097204;23;20053;-56
2022/11/06 09:19:23;;;;;;;14.88;3.83;;;;;;;11.03;100.00;100964.00;6097170;23;20074;-56
2022/11/06 09:21:50;;;;;;;10.43;3.78;;;;;;;11.11;100.00;100953.66;6097347;23;20018;-59
2022/11/06 09:24:21;;;;;;;8.77;3.65;;;;;;;11.03;100.00;100947.66;6097362;23;20048;-55
2022/11/06 09:27:09;;;;;;;8.98;2.60;;;;;;;11.01;100.00;100949.81;6097307;23;20052;-57
2022/11/06 09:29:39;;;;;;;13.13;4.63;;;;;;;11.06;100.00;100946.28;6097452;23;20022;-58
2022/11/06 09:32:07;;;;;;;10.00;3.75;;;;;;;11.16;100.00;100938.16;6096911;23;20018;-54
2022/11/06 09:34:34;;;;;;;10.70;2.88;;;;;;;11.17;100.00;100941.69;6097322;23;20026;-57
2022/11/06 09:37:03;;;;;;;10.43;3.20;;;;;;;11.24;100.00;100925.91;6097092;23;20352;-56
2022/11/06 09:39:30;;;;;;;7.68;2.72;;;;;;;11.26;100.00;100931.91;6096728;23;20034;-58
2022/11/06 09:42:01;;;;;;;10.30;3.05;;;;;;;11.25;100.00;100924.78;6096769;23;20022;-58
2022/11/06 09:44:54;;;;;;;11.18;3.80;;;;;;;11.34;100.00;100930.56;6095738;23;20022;-57
2022/11/06 09:47:25;;;;;;;11.98;4.45;;;;;;;11.49;100.00;100923.19;6085812;23;20042;-58
2022/11/06 09:49:54;;;;;;;11.15;3.90;;;;;;;11.54;100.00;100929.75;6095814;23;20022;-58
2022/11/06 09:53:01;;;;;;;8.55;3.40;;;;;;;11.52;100.00;100936.31;6095517;23;20074;-58
2022/11/06 09:55:40;;;;;;;12.25;3.90;;;;;;;11.60;100.00;100917.75;6097079;23;20018;-57
2022/11/06 09:58:17;;;;;;;9.93;3.20;;;;;;;11.66;100.00;100927.56;6095700;23;20439;-57
2022/11/06 10:00:45;;;;;;;10.30;2.85;;;;;;;11.62;100.00;100938.22;6097359;23;20022;-57
2022/11/06 10:03:32;;;;;;;12.60;4.18;;;;;;;11.82;100.00;100920.22;6096798;23;20018;-57
2022/11/06 10:05:59;;;;;;;6.72;2.75;;;;;;;11.71;100.00;100930.28;6095949;23;20085;-57
2022/11/06 10:08:29;;;;;;;12.48;3.78;;;;;;;11.87;100.00;100915.59;6095469;23;20029;-54
2022/11/06 10:11:12;;;;;;;17.23;4.15;;;;;;;12.32;100.00;100904.88;6096123;23;20018;-56
2022/11/06 10:13:58;;;;;;;8.68;3.35;;;;;;;12.00;100.00;100911.50;6095314;23;20029;-56
2022/11/06 10:16:44;;;;;;;;;;;;;;;11.96;100.00;100906.84;6049550;23;20049;-54
2022/11/06 10:19:23;;;;;;;6.32;2.25;;;;;;;11.75;100.00;100904.09;6097165;23;19925;-58
2022/11/06 10:22:06;;;;;;;10.48;2.95;;;;;;;11.75;100.00;100909.56;6096927;23;20022;-55
2022/11/06 10:24:44;;;;;;;7.82;2.90;;;;;;;11.70;100.00;100910.38;6097029;23;20022;-54
2022/11/06 10:27:24;;;;;;;10.52;2.90;;;;;;;11.65;99.92;100904.91;6097290;23;20447;-55
2022/11/06 10:30:11;;;;;;;9.45;3.28;;;;;;;11.64;99.33;100903.28;6097268;23;20025;-57
2022/11/06 10:33:05;;;;;;;8.60;3.25;;;;;;;11.66;98.35;100900.28;6071882;23;20348;-57
2022/11/06 10:35:41;;;;;;;10.50;3.17;;;;;;;11.69;100.00;100894.28;6095501;23;20027;-57
2022/11/06 10:38:17;;;;;;;10.02;3.00;;;;;;;11.62;97.08;100893.75;6071366;23;20018;-58
2022/11/06 10:40:47;;;;;;;7.80;2.75;;;;;;;11.58;97.57;100887.19;6095393;23;20082;-57
2022/11/06 10:43:26;;;;;;;9.70;4.00;;;;;;;11.71;100.00;100889.34;6097143;23;20023;-57
2022/11/06 10:46:17;;;;;;;8.02;2.63;;;;;;;11.63;97.59;100889.91;6071836;23;20022;-59
2022/11/06 10:49:20;;;;;;;6.90;2.60;;;;;;;11.62;97.80;100885.56;6095472;23;20021;-58
2022/11/06 10:52:09;;;;;;;7.65;3.10;;;;;;;11.70;100.00;100876.81;6060711;23;20022;-58
2022/11/06 10:54:58;;;;;;;9.80;3.28;;;;;;;11.83;100.00;100862.59;6096869;23;20029;-57
2022/11/06 10:57:49;;;;;;;9.13;3.13;;;;;;;11.88;100.00;100854.44;6096533;23;20018;-59
2022/11/06 11:00:16;;;;;;;11.52;2.70;;;;;;;11.84;100.00;100853.31;6084216;23;20023;-58
2022/11/06 11:03:01;;;;;;;10.63;2.95;;;;;;;11.67;96.89;100855.53;6096685;23;20032;-57
2022/11/06 11:05:39;;;;;;;8.15;3.17;;;;;;;11.74;100.00;100842.44;6095526;23;20025;-55
2022/11/06 11:08:25;;;;;;;8.20;2.88;;;;;;;11.83;100.00;100840.75;6095443;23;20018;-57
2022/11/06 11:11:01;;;;;;;10.02;3.30;;;;;;;11.93;100.00;100835.31;6096846;23;20019;-58
2022/11/06 11:13:32;;;;;;;7.57;2.95;;;;;;;12.05;100.00;100831.44;6049798;23;20026;-57
2022/11/06 11:16:02;;;;;;;8.68;3.05;;;;;;;11.98;100.00;100820.00;6097003;23;20074;-59
2022/11/06 11:18:30;;;;;;;11.00;3.28;;;;;;;11.83;96.46;100823.56;6097383;23;20029;-58
2022/11/06 11:21:09;;;;;;;8.05;3.38;;;;;;;11.94;100.00;100823.28;6098149;23;20022;-58
2022/11/06 11:23:37;;;;;;;8.05;3.28;;;;;;;12.07;100.00;100807.41;6100015;23;20336;-58
2022/11/06 11:26:16;;;;;;;7.38;2.67;;;;;;;11.98;97.08;100809.91;6102651;23;20018;-58
2022/11/06 11:28:59;;;;;;;8.38;2.90;;;;;;;11.87;94.42;100814.56;6102679;23;20033;-57
2022/11/06 11:31:34;;;;;;;7.45;2.55;;;;;;;11.86;95.69;100812.91;6099295;23;20022;-57
2022/11/06 11:34:04;;;;;;;11.85;3.40;;;;;;;12.15;99.58;100813.13;6098759;23;20448;-56
2022/11/06 11:36:53;;;;;;;8.27;2.55;;;;;;;12.31;100.00;100802.97;6096868;23;20097;-61
2022/11/06 11:39:32;;;;;;;8.10;2.90;;;;;;;12.30;97.17;100800.50;6096696;23;20029;-57
2022/11/06 11:42:21;;;;;;;7.78;3.03;;;;;;;12.15;96.52;100798.66;6097128;23;20042;-57
2022/11/06 11:45:07;;;;;;;8.52;2.97;;;;;;;12.17;99.67;100791.00;6097868;23;20351;-54
2022/11/06 11:47:42;;;;;;;12.10;2.92;;;;;;;12.03;93.07;100784.50;6098908;23;20517;-57
2022/11/06 11:50:20;;;;;;;9.13;2.80;;;;;;;12.13;97.26;100779.00;6097511;23;20018;-56
2022/11/06 11:52:52;;;;;;;9.45;2.97;;;;;;;12.00;92.91;100774.97;6098476;23;20355;-58
2022/11/06 11:55:22;;;;;;;9.07;2.53;;;;;;;12.13;92.36;100768.06;6098314;23;20029;-58